Swift Current Airport, Saskatchewan

Past 24 Hour Conditions

Date / Time
(CST)
Conditions Temp
(°F)
Humidity
(%)
Dew Point
(°F)
Wind
(mph)
Pressure
(inches)
Visibility
(miles)
03 September 2015
23:00 Light Rain 50   83 45 NNE 9 30.0 10
22:00 Light Rain 53 71 44 N 6 30.0 10
21:00 Cloudy 55 62 42 N 8 30.0 10
20:00 Light Rain 56 58 41 N 8 30.0 10
19:00 Sunny 58 56 43 N 9 29.9 10
18:00 Cloudy 59 56 44 N 11 29.9 10
17:00 Mostly Cloudy 60 53 42 NNW 11 gust 18 29.9 10
16:00 Partly Cloudy 62 48 43 N 13 gust 20 29.9 10
15:00 Sunny 64 43 41 NNW 16 29.9 10
14:00 Mainly Sunny 65   38 39 N 15 gust 22 29.9 10
13:00 Cloudy 65   40 40 N 13 gust 20 29.9 10
12:00 Partly Cloudy 64 46 42 NW 10 29.9 10
11:00 Sunny 62 47 42 NNW 11 gust 17 29.9 10
10:00 Sunny 60 53 43 WNW 11 29.9 9
9:00 Sunny 57 59 43 WNW 8 29.9 9
8:00 Sunny 54 69 44 W 8 29.9 10
7:00 Sunny 50   81 45 W 8 29.9 10
6:00 Clear 50   83 45 NW 7 29.8 10
5:00 Partly Cloudy 51 83 46 NW 9 29.8 10
4:00 Cloudy 53 80 47 N 6 29.8 10
3:00 Cloudy 55 75 48 N 6 29.8 10
2:00 Mostly Cloudy 57 70 48 NW 10 29.8 10
1:00 Mostly Cloudy 60 55 44 WNW 11 gust 17 29.8 10
00:00 Partly Cloudy 64 42 40 WNW 14 gust 20 29.7 10
02 September 2015
23:00 Partly Cloudy 63 40 39 W 9 29.7 10
N/A Not available
↑ Highest temperature
↓ Lowest temperature

If you require additional historical weather information, please visit Climate Data Online.

What we are doing

Date modified: